sensor_id;sensor_type;location;lat;lon;timestamp;P1;durP1;ratioP1;P2;durP2;ratioP2
53010;SDS011;42803;55.762;38.084;2023-04-25T00:00:28;13.35;;;6.00;;
53010;SDS011;42803;55.762;38.084;2023-04-25T00:02:59;11.32;;;5.50;;
53010;SDS011;42803;55.762;38.084;2023-04-25T00:05:28;12.20;;;5.88;;
53010;SDS011;42803;55.762;38.084;2023-04-25T00:07:57;15.73;;;5.97;;
53010;SDS011;42803;55.762;38.084;2023-04-25T00:10:27;10.73;;;5.57;;
53010;SDS011;42803;55.762;38.084;2023-04-25T00:12:56;13.90;;;5.72;;
53010;SDS011;42803;55.762;38.084;2023-04-25T00:15:25;9.60;;;6.05;;
53010;SDS011;42803;55.762;38.084;2023-04-25T00:17:55;14.63;;;6.55;;
53010;SDS011;42803;55.762;38.084;2023-04-25T00:20:26;13.63;;;5.88;;
53010;SDS011;42803;55.762;38.084;2023-04-25T00:22:55;16.95;;;6.43;;
53010;SDS011;42803;55.762;38.084;2023-04-25T00:25:24;17.15;;;6.80;;
53010;SDS011;42803;55.762;38.084;2023-04-25T00:27:53;17.50;;;6.15;;
53010;SDS011;42803;55.762;38.084;2023-04-25T00:30:22;16.63;;;6.75;;
53010;SDS011;42803;55.762;38.084;2023-04-25T00:32:51;10.52;;;6.07;;
53010;SDS011;42803;55.762;38.084;2023-04-25T00:35:20;10.23;;;5.68;;
53010;SDS011;42803;55.762;38.084;2023-04-25T00:37:51;18.08;;;6.03;;
53010;SDS011;42803;55.762;38.084;2023-04-25T00:40:20;11.63;;;5.43;;
53010;SDS011;42803;55.762;38.084;2023-04-25T00:42:50;10.30;;;5.45;;
53010;SDS011;42803;55.762;38.084;2023-04-25T00:45:20;12.07;;;5.35;;
53010;SDS011;42803;55.762;38.084;2023-04-25T00:47:50;15.50;;;6.15;;
53010;SDS011;42803;55.762;38.084;2023-04-25T00:50:19;12.65;;;6.15;;
53010;SDS011;42803;55.762;38.084;2023-04-25T00:52:51;12.65;;;5.50;;
53010;SDS011;42803;55.762;38.084;2023-04-25T00:55:21;14.32;;;5.60;;
53010;SDS011;42803;55.762;38.084;2023-04-25T00:57:50;20.33;;;6.15;;
53010;SDS011;42803;55.762;38.084;2023-04-25T01:00:19;9.65;;;5.25;;
53010;SDS011;42803;55.762;38.084;2023-04-25T01:02:49;10.75;;;5.60;;
53010;SDS011;42803;55.762;38.084;2023-04-25T01:05:18;10.60;;;5.47;;
53010;SDS011;42803;55.762;38.084;2023-04-25T01:07:48;8.57;;;5.57;;
53010;SDS011;42803;55.762;38.084;2023-04-25T01:10:18;11.23;;;5.80;;
53010;SDS011;42803;55.762;38.084;2023-04-25T01:12:48;12.70;;;5.13;;
53010;SDS011;42803;55.762;38.084;2023-04-25T01:15:17;11.75;;;4.93;;
53010;SDS011;42803;55.762;38.084;2023-04-25T01:17:46;9.30;;;5.63;;
53010;SDS011;42803;55.762;38.084;2023-04-25T01:20:16;9.38;;;5.03;;
53010;SDS011;42803;55.762;38.084;2023-04-25T01:22:47;10.48;;;5.50;;
53010;SDS011;42803;55.762;38.084;2023-04-25T01:25:18;11.98;;;5.30;;
53010;SDS011;42803;55.762;38.084;2023-04-25T01:27:48;12.85;;;5.47;;
53010;SDS011;42803;55.762;38.084;2023-04-25T01:30:17;10.77;;;5.10;;
53010;SDS011;42803;55.762;38.084;2023-04-25T01:32:47;13.88;;;5.50;;
53010;SDS011;42803;55.762;38.084;2023-04-25T01:35:16;13.75;;;5.07;;
53010;SDS011;42803;55.762;38.084;2023-04-25T01:37:46;12.27;;;5.43;;
53010;SDS011;42803;55.762;38.084;2023-04-25T01:40:16;12.93;;;5.55;;
53010;SDS011;42803;55.762;38.084;2023-04-25T01:42:47;17.35;;;5.88;;
53010;SDS011;42803;55.762;38.084;2023-04-25T01:45:17;13.55;;;5.80;;
53010;SDS011;42803;55.762;38.084;2023-04-25T01:47:46;13.63;;;5.45;;
53010;SDS011;42803;55.762;38.084;2023-04-25T01:50:17;18.30;;;5.85;;
53010;SDS011;42803;55.762;38.084;2023-04-25T01:52:48;10.80;;;5.35;;
53010;SDS011;42803;55.762;38.084;2023-04-25T01:55:19;11.98;;;5.82;;
53010;SDS011;42803;55.762;38.084;2023-04-25T01:57:56;10.25;;;5.03;;
53010;SDS011;42803;55.762;38.084;2023-04-25T02:00:39;12.93;;;6.93;;
53010;SDS011;42803;55.762;38.084;2023-04-25T02:03:08;12.77;;;6.55;;
53010;SDS011;42803;55.762;38.084;2023-04-25T02:05:37;13.10;;;7.03;;
53010;SDS011;42803;55.762;38.084;2023-04-25T02:08:12;15.88;;;7.70;;
53010;SDS011;42803;55.762;38.084;2023-04-25T02:10:41;16.00;;;7.25;;
53010;SDS011;42803;55.762;38.084;2023-04-25T02:13:15;17.08;;;6.88;;
53010;SDS011;42803;55.762;38.084;2023-04-25T02:16:10;13.07;;;6.82;;
53010;SDS011;42803;55.762;38.084;2023-04-25T02:18:40;16.45;;;7.65;;
53010;SDS011;42803;55.762;38.084;2023-04-25T02:21:09;16.92;;;6.97;;
53010;SDS011;42803;55.762;38.084;2023-04-25T02:23:40;16.23;;;7.55;;
53010;SDS011;42803;55.762;38.084;2023-04-25T02:26:09;19.17;;;7.78;;
53010;SDS011;42803;55.762;38.084;2023-04-25T02:28:38;13.20;;;7.00;;
53010;SDS011;42803;55.762;38.084;2023-04-25T02:31:07;10.90;;;6.43;;
53010;SDS011;42803;55.762;38.084;2023-04-25T02:33:36;12.30;;;6.90;;
53010;SDS011;42803;55.762;38.084;2023-04-25T02:36:06;19.85;;;7.15;;
53010;SDS011;42803;55.762;38.084;2023-04-25T02:38:35;12.00;;;6.10;;
53010;SDS011;42803;55.762;38.084;2023-04-25T02:41:06;13.50;;;6.45;;
53010;SDS011;42803;55.762;38.084;2023-04-25T02:43:35;11.23;;;6.88;;
53010;SDS011;42803;55.762;38.084;2023-04-25T02:46:04;12.63;;;6.07;;
53010;SDS011;42803;55.762;38.084;2023-04-25T02:48:33;20.35;;;6.40;;
53010;SDS011;42803;55.762;38.084;2023-04-25T02:51:02;14.70;;;6.28;;
53010;SDS011;42803;55.762;38.084;2023-04-25T02:53:31;12.15;;;5.40;;
53010;SDS011;42803;55.762;38.084;2023-04-25T02:56:00;13.38;;;5.15;;
53010;SDS011;42803;55.762;38.084;2023-04-25T02:58:32;13.57;;;5.50;;
53010;SDS011;42803;55.762;38.084;2023-04-25T03:01:01;11.30;;;4.78;;
53010;SDS011;42803;55.762;38.084;2023-04-25T03:03:30;9.68;;;5.25;;
53010;SDS011;42803;55.762;38.084;2023-04-25T03:05:59;11.35;;;5.50;;
53010;SDS011;42803;55.762;38.084;2023-04-25T03:08:31;10.93;;;5.32;;
53010;SDS011;42803;55.762;38.084;2023-04-25T03:11:02;8.75;;;4.90;;
53010;SDS011;42803;55.762;38.084;2023-04-25T03:13:32;11.85;;;4.43;;
53010;SDS011;42803;55.762;38.084;2023-04-25T03:16:01;10.95;;;4.80;;
53010;SDS011;42803;55.762;38.084;2023-04-25T03:18:31;11.27;;;5.18;;
53010;SDS011;42803;55.762;38.084;2023-04-25T03:21:00;12.02;;;5.07;;
53010;SDS011;42803;55.762;38.084;2023-04-25T03:23:31;8.40;;;4.70;;
53010;SDS011;42803;55.762;38.084;2023-04-25T03:26:00;9.15;;;4.63;;
53010;SDS011;42803;55.762;38.084;2023-04-25T03:28:30;15.95;;;5.13;;
53010;SDS011;42803;55.762;38.084;2023-04-25T03:31:00;8.57;;;5.03;;
53010;SDS011;42803;55.762;38.084;2023-04-25T03:33:29;10.13;;;5.00;;
53010;SDS011;42803;55.762;38.084;2023-04-25T03:35:58;13.93;;;4.32;;
53010;SDS011;42803;55.762;38.084;2023-04-25T03:38:29;12.43;;;4.30;;
53010;SDS011;42803;55.762;38.084;2023-04-25T03:40:58;10.00;;;4.72;;
53010;SDS011;42803;55.762;38.084;2023-04-25T03:43:50;5.68;;;3.90;;
53010;SDS011;42803;55.762;38.084;2023-04-25T03:46:21;8.20;;;4.60;;
53010;SDS011;42803;55.762;38.084;2023-04-25T03:48:51;11.15;;;4.90;;
53010;SDS011;42803;55.762;38.084;2023-04-25T03:51:24;7.63;;;4.60;;
53010;SDS011;42803;55.762;38.084;2023-04-25T03:53:53;7.97;;;5.28;;
53010;SDS011;42803;55.762;38.084;2023-04-25T03:56:53;9.90;;;4.60;;
53010;SDS011;42803;55.762;38.084;2023-04-25T03:59:25;9.85;;;5.32;;
53010;SDS011;42803;55.762;38.084;2023-04-25T04:01:56;10.30;;;5.55;;
53010;SDS011;42803;55.762;38.084;2023-04-25T04:04:25;8.10;;;4.65;;
53010;SDS011;42803;55.762;38.084;2023-04-25T04:06:55;10.75;;;5.18;;
53010;SDS011;42803;55.762;38.084;2023-04-25T04:12:25;13.35;;;4.55;;
53010;SDS011;42803;55.762;38.084;2023-04-25T04:14:54;12.93;;;4.60;;
53010;SDS011;42803;55.762;38.084;2023-04-25T04:17:24;17.25;;;4.65;;
53010;SDS011;42803;55.762;38.084;2023-04-25T04:19:54;8.60;;;4.82;;
53010;SDS011;42803;55.762;38.084;2023-04-25T04:22:23;13.98;;;4.88;;
53010;SDS011;42803;55.762;38.084;2023-04-25T04:24:56;10.35;;;4.72;;
53010;SDS011;42803;55.762;38.084;2023-04-25T04:27:55;11.98;;;6.78;;
53010;SDS011;42803;55.762;38.084;2023-04-25T04:30:33;8.93;;;5.40;;
53010;SDS011;42803;55.762;38.084;2023-04-25T04:33:08;8.45;;;4.75;;
53010;SDS011;42803;55.762;38.084;2023-04-25T04:35:39;15.55;;;5.22;;
53010;SDS011;42803;55.762;38.084;2023-04-25T04:38:10;13.90;;;5.00;;
53010;SDS011;42803;55.762;38.084;2023-04-25T04:40:40;7.10;;;4.65;;
53010;SDS011;42803;55.762;38.084;2023-04-25T04:43:18;9.02;;;5.40;;
53010;SDS011;42803;55.762;38.084;2023-04-25T04:45:53;10.48;;;5.00;;
53010;SDS011;42803;55.762;38.084;2023-04-25T04:48:34;11.10;;;4.38;;
53010;SDS011;42803;55.762;38.084;2023-04-25T04:51:36;10.93;;;4.70;;
53010;SDS011;42803;55.762;38.084;2023-04-25T04:54:25;12.07;;;4.50;;
53010;SDS011;42803;55.762;38.084;2023-04-25T04:57:11;8.30;;;4.45;;
53010;SDS011;42803;55.762;38.084;2023-04-25T05:00:03;10.63;;;4.40;;
53010;SDS011;42803;55.762;38.084;2023-04-25T05:02:55;8.60;;;4.68;;
53010;SDS011;42803;55.762;38.084;2023-04-25T05:05:42;12.07;;;4.47;;
53010;SDS011;42803;55.762;38.084;2023-04-25T05:08:11;10.43;;;4.60;;
53010;SDS011;42803;55.762;38.084;2023-04-25T05:10:51;7.97;;;4.10;;
53010;SDS011;42803;55.762;38.084;2023-04-25T05:13:38;7.85;;;3.53;;
53010;SDS011;42803;55.762;38.084;2023-04-25T05:16:26;8.98;;;4.13;;
53010;SDS011;42803;55.762;38.084;2023-04-25T05:19:11;11.80;;;3.60;;
53010;SDS011;42803;55.762;38.084;2023-04-25T05:21:49;8.40;;;3.28;;
53010;SDS011;42803;55.762;38.084;2023-04-25T05:24:47;7.35;;;3.67;;
53010;SDS011;42803;55.762;38.084;2023-04-25T05:27:38;9.20;;;3.60;;
53010;SDS011;42803;55.762;38.084;2023-04-25T05:30:36;9.20;;;3.60;;
53010;SDS011;42803;55.762;38.084;2023-04-25T05:33:14;11.35;;;4.13;;
53010;SDS011;42803;55.762;38.084;2023-04-25T05:35:44;7.10;;;3.78;;
53010;SDS011;42803;55.762;38.084;2023-04-25T05:38:16;17.38;;;4.30;;
53010;SDS011;42803;55.762;38.084;2023-04-25T05:41:09;9.13;;;3.58;;
53010;SDS011;42803;55.762;38.084;2023-04-25T05:43:41;11.43;;;3.40;;
53010;SDS011;42803;55.762;38.084;2023-04-25T05:46:28;14.70;;;4.13;;
53010;SDS011;42803;55.762;38.084;2023-04-25T05:52:20;8.55;;;3.78;;
53010;SDS011;42803;55.762;38.084;2023-04-25T05:55:04;7.57;;;3.20;;
53010;SDS011;42803;55.762;38.084;2023-04-25T05:57:34;8.48;;;3.13;;
53010;SDS011;42803;55.762;38.084;2023-04-25T06:00:07;11.70;;;3.22;;
53010;SDS011;42803;55.762;38.084;2023-04-25T06:02:40;5.43;;;3.28;;
53010;SDS011;42803;55.762;38.084;2023-04-25T06:05:13;11.93;;;3.20;;
53010;SDS011;42803;55.762;38.084;2023-04-25T06:07:42;9.73;;;4.03;;
53010;SDS011;42803;55.762;38.084;2023-04-25T06:10:13;6.15;;;2.72;;
53010;SDS011;42803;55.762;38.084;2023-04-25T06:12:43;9.00;;;3.10;;
53010;SDS011;42803;55.762;38.084;2023-04-25T06:15:14;11.38;;;2.85;;
53010;SDS011;42803;55.762;38.084;2023-04-25T06:17:55;10.38;;;3.88;;
53010;SDS011;42803;55.762;38.084;2023-04-25T06:20:24;8.70;;;2.80;;
53010;SDS011;42803;55.762;38.084;2023-04-25T06:22:57;13.90;;;3.35;;
53010;SDS011;42803;55.762;38.084;2023-04-25T06:25:52;30.40;;;3.80;;
53010;SDS011;42803;55.762;38.084;2023-04-25T06:28:39;8.80;;;2.60;;
53010;SDS011;42803;55.762;38.084;2023-04-25T06:31:09;7.63;;;2.80;;
53010;SDS011;42803;55.762;38.084;2023-04-25T06:33:40;11.35;;;3.17;;
53010;SDS011;42803;55.762;38.084;2023-04-25T06:36:09;16.92;;;3.00;;
53010;SDS011;42803;55.762;38.084;2023-04-25T06:38:39;8.65;;;2.70;;
53010;SDS011;42803;55.762;38.084;2023-04-25T06:41:10;8.57;;;3.00;;
53010;SDS011;42803;55.762;38.084;2023-04-25T06:43:39;7.57;;;2.63;;
53010;SDS011;42803;55.762;38.084;2023-04-25T06:46:16;7.70;;;2.88;;
53010;SDS011;42803;55.762;38.084;2023-04-25T06:48:47;4.25;;;2.63;;
53010;SDS011;42803;55.762;38.084;2023-04-25T06:51:17;6.13;;;2.70;;
53010;SDS011;42803;55.762;38.084;2023-04-25T06:53:53;12.25;;;2.95;;
53010;SDS011;42803;55.762;38.084;2023-04-25T06:56:30;19.08;;;3.00;;
53010;SDS011;42803;55.762;38.084;2023-04-25T06:59:08;15.73;;;2.30;;
53010;SDS011;42803;55.762;38.084;2023-04-25T07:01:39;4.22;;;2.30;;
53010;SDS011;42803;55.762;38.084;2023-04-25T07:04:16;6.40;;;2.25;;
53010;SDS011;42803;55.762;38.084;2023-04-25T07:06:52;11.82;;;2.97;;
53010;SDS011;42803;55.762;38.084;2023-04-25T07:09:30;7.60;;;2.60;;
53010;SDS011;42803;55.762;38.084;2023-04-25T07:12:03;5.78;;;2.42;;
53010;SDS011;42803;55.762;38.084;2023-04-25T07:14:33;5.05;;;2.13;;
53010;SDS011;42803;55.762;38.084;2023-04-25T07:17:03;17.08;;;2.97;;
53010;SDS011;42803;55.762;38.084;2023-04-25T07:19:35;3.92;;;2.20;;
53010;SDS011;42803;55.762;38.084;2023-04-25T07:22:08;13.80;;;2.95;;
53010;SDS011;42803;55.762;38.084;2023-04-25T07:24:40;5.78;;;2.40;;
53010;SDS011;42803;55.762;38.084;2023-04-25T07:27:14;4.43;;;2.65;;
53010;SDS011;42803;55.762;38.084;2023-04-25T07:29:50;7.30;;;2.00;;
53010;SDS011;42803;55.762;38.084;2023-04-25T07:32:22;6.53;;;2.47;;
53010;SDS011;42803;55.762;38.084;2023-04-25T07:34:52;5.43;;;2.20;;
53010;SDS011;42803;55.762;38.084;2023-04-25T07:37:21;5.75;;;2.15;;
53010;SDS011;42803;55.762;38.084;2023-04-25T07:40:12;4.70;;;2.25;;
53010;SDS011;42803;55.762;38.084;2023-04-25T07:42:48;4.50;;;2.00;;
53010;SDS011;42803;55.762;38.084;2023-04-25T07:45:24;5.25;;;2.33;;
53010;SDS011;42803;55.762;38.084;2023-04-25T07:47:53;3.92;;;1.80;;
53010;SDS011;42803;55.762;38.084;2023-04-25T07:50:23;6.65;;;2.10;;
53010;SDS011;42803;55.762;38.084;2023-04-25T07:52:53;4.50;;;2.03;;
53010;SDS011;42803;55.762;38.084;2023-04-25T07:55:28;5.32;;;2.10;;
53010;SDS011;42803;55.762;38.084;2023-04-25T07:58:07;8.25;;;2.10;;
53010;SDS011;42803;55.762;38.084;2023-04-25T08:00:40;5.72;;;2.35;;
53010;SDS011;42803;55.762;38.084;2023-04-25T08:03:26;3.47;;;1.90;;
53010;SDS011;42803;55.762;38.084;2023-04-25T08:05:57;5.45;;;2.55;;
53010;SDS011;42803;55.762;38.084;2023-04-25T08:08:30;5.80;;;2.25;;
53010;SDS011;42803;55.762;38.084;2023-04-25T08:10:59;9.13;;;2.55;;
53010;SDS011;42803;55.762;38.084;2023-04-25T08:13:30;6.38;;;2.35;;
53010;SDS011;42803;55.762;38.084;2023-04-25T08:15:59;6.50;;;2.60;;
53010;SDS011;42803;55.762;38.084;2023-04-25T08:18:28;6.65;;;2.53;;
53010;SDS011;42803;55.762;38.084;2023-04-25T08:20:58;6.88;;;2.97;;
53010;SDS011;42803;55.762;38.084;2023-04-25T08:23:28;7.03;;;2.83;;
53010;SDS011;42803;55.762;38.084;2023-04-25T08:26:10;7.25;;;2.95;;
53010;SDS011;42803;55.762;38.084;2023-04-25T08:28:43;8.18;;;2.83;;
53010;SDS011;42803;55.762;38.084;2023-04-25T08:31:12;11.00;;;3.00;;
53010;SDS011;42803;55.762;38.084;2023-04-25T08:33:55;5.43;;;2.30;;
53010;SDS011;42803;55.762;38.084;2023-04-25T08:36:45;3.60;;;2.50;;
53010;SDS011;42803;55.762;38.084;2023-04-25T08:39:29;5.55;;;2.20;;
53010;SDS011;42803;55.762;38.084;2023-04-25T08:42:21;5.85;;;2.10;;
53010;SDS011;42803;55.762;38.084;2023-04-25T08:44:53;4.18;;;2.20;;
53010;SDS011;42803;55.762;38.084;2023-04-25T08:47:30;5.57;;;2.20;;
53010;SDS011;42803;55.762;38.084;2023-04-25T08:50:03;3.78;;;2.08;;
53010;SDS011;42803;55.762;38.084;2023-04-25T08:52:35;5.68;;;3.45;;
53010;SDS011;42803;55.762;38.084;2023-04-25T08:55:07;4.72;;;2.00;;
53010;SDS011;42803;55.762;38.084;2023-04-25T08:57:39;7.13;;;1.85;;
53010;SDS011;42803;55.762;38.084;2023-04-25T09:00:13;4.15;;;2.38;;
53010;SDS011;42803;55.762;38.084;2023-04-25T09:02:44;5.03;;;1.80;;
53010;SDS011;42803;55.762;38.084;2023-04-25T09:05:15;7.35;;;2.70;;
53010;SDS011;42803;55.762;38.084;2023-04-25T09:07:50;4.32;;;1.92;;
53010;SDS011;42803;55.762;38.084;2023-04-25T09:10:20;7.97;;;2.15;;
53010;SDS011;42803;55.762;38.084;2023-04-25T09:13:01;2.47;;;1.88;;
53010;SDS011;42803;55.762;38.084;2023-04-25T09:15:50;3.80;;;2.17;;
53010;SDS011;42803;55.762;38.084;2023-04-25T09:18:44;3.03;;;1.67;;
53010;SDS011;42803;55.762;38.084;2023-04-25T09:21:18;5.07;;;1.60;;
53010;SDS011;42803;55.762;38.084;2023-04-25T09:23:51;4.47;;;1.50;;
53010;SDS011;42803;55.762;38.084;2023-04-25T09:26:21;5.05;;;1.50;;
53010;SDS011;42803;55.762;38.084;2023-04-25T09:28:50;2.97;;;1.85;;
53010;SDS011;42803;55.762;38.084;2023-04-25T09:31:37;1.85;;;1.50;;
53010;SDS011;42803;55.762;38.084;2023-04-25T09:34:08;7.60;;;1.45;;
53010;SDS011;42803;55.762;38.084;2023-04-25T09:36:47;6.80;;;1.60;;
53010;SDS011;42803;55.762;38.084;2023-04-25T09:39:32;8.23;;;1.45;;
53010;SDS011;42803;55.762;38.084;2023-04-25T09:42:10;5.75;;;1.65;;
53010;SDS011;42803;55.762;38.084;2023-04-25T09:44:41;3.35;;;1.67;;
53010;SDS011;42803;55.762;38.084;2023-04-25T09:47:15;2.67;;;1.33;;
53010;SDS011;42803;55.762;38.084;2023-04-25T09:49:45;6.15;;;1.83;;
53010;SDS011;42803;55.762;38.084;2023-04-25T09:52:15;5.05;;;2.03;;
53010;SDS011;42803;55.762;38.084;2023-04-25T09:54:55;3.55;;;1.50;;
53010;SDS011;42803;55.762;38.084;2023-04-25T09:57:30;3.92;;;1.20;;
53010;SDS011;42803;55.762;38.084;2023-04-25T10:00:01;2.65;;;1.20;;
53010;SDS011;42803;55.762;38.084;2023-04-25T10:02:43;3.38;;;1.58;;
53010;SDS011;42803;55.762;38.084;2023-04-25T10:05:36;3.58;;;2.20;;
53010;SDS011;42803;55.762;38.084;2023-04-25T10:08:06;2.50;;;1.70;;
53010;SDS011;42803;55.762;38.084;2023-04-25T10:10:35;3.78;;;1.60;;
53010;SDS011;42803;55.762;38.084;2023-04-25T10:13:05;2.03;;;1.50;;
53010;SDS011;42803;55.762;38.084;2023-04-25T10:15:35;3.80;;;1.70;;
53010;SDS011;42803;55.762;38.084;2023-04-25T10:18:08;2.90;;;1.92;;
53010;SDS011;42803;55.762;38.084;2023-04-25T10:20:37;6.72;;;2.63;;
53010;SDS011;42803;55.762;38.084;2023-04-25T10:23:08;4.53;;;2.47;;
53010;SDS011;42803;55.762;38.084;2023-04-25T10:28:11;6.07;;;2.63;;
53010;SDS011;42803;55.762;38.084;2023-04-25T10:33:30;5.93;;;2.63;;
53010;SDS011;42803;55.762;38.084;2023-04-25T10:36:08;5.20;;;2.80;;
53010;SDS011;42803;55.762;38.084;2023-04-25T10:38:39;5.95;;;2.08;;
53010;SDS011;42803;55.762;38.084;2023-04-25T10:41:09;7.30;;;2.72;;
53010;SDS011;42803;55.762;38.084;2023-04-25T10:43:40;4.93;;;2.47;;
53010;SDS011;42803;55.762;38.084;2023-04-25T10:46:13;3.38;;;2.20;;
53010;SDS011;42803;55.762;38.084;2023-04-25T10:48:46;4.13;;;2.33;;
53010;SDS011;42803;55.762;38.084;2023-04-25T10:51:19;5.20;;;2.53;;
53010;SDS011;42803;55.762;38.084;2023-04-25T10:53:56;7.88;;;3.15;;
53010;SDS011;42803;55.762;38.084;2023-04-25T10:56:27;5.05;;;2.45;;
53010;SDS011;42803;55.762;38.084;2023-04-25T10:59:07;5.38;;;2.60;;
53010;SDS011;42803;55.762;38.084;2023-04-25T11:01:38;5.05;;;2.47;;
53010;SDS011;42803;55.762;38.084;2023-04-25T11:07:07;4.88;;;2.47;;
53010;SDS011;42803;55.762;38.084;2023-04-25T11:09:42;4.22;;;2.58;;
53010;SDS011;42803;55.762;38.084;2023-04-25T11:12:14;5.82;;;2.53;;
53010;SDS011;42803;55.762;38.084;2023-04-25T11:14:44;14.65;;;2.95;;
53010;SDS011;42803;55.762;38.084;2023-04-25T11:17:13;5.05;;;2.80;;
53010;SDS011;42803;55.762;38.084;2023-04-25T11:19:49;8.52;;;3.22;;
53010;SDS011;42803;55.762;38.084;2023-04-25T11:22:18;8.15;;;2.80;;
53010;SDS011;42803;55.762;38.084;2023-04-25T11:24:50;7.28;;;2.45;;
53010;SDS011;42803;55.762;38.084;2023-04-25T11:27:19;3.60;;;2.83;;
53010;SDS011;42803;55.762;38.084;2023-04-25T11:29:49;9.45;;;2.47;;
53010;SDS011;42803;55.762;38.084;2023-04-25T11:32:21;4.68;;;2.25;;
53010;SDS011;42803;55.762;38.084;2023-04-25T11:34:58;19.70;;;8.45;;
53010;SDS011;42803;55.762;38.084;2023-04-25T11:37:29;9.20;;;2.80;;
53010;SDS011;42803;55.762;38.084;2023-04-25T11:39:58;6.85;;;2.70;;
53010;SDS011;42803;55.762;38.084;2023-04-25T11:42:30;5.65;;;3.47;;
53010;SDS011;42803;55.762;38.084;2023-04-25T11:44:59;5.50;;;2.17;;
53010;SDS011;42803;55.762;38.084;2023-04-25T11:47:31;3.20;;;2.20;;
53010;SDS011;42803;55.762;38.084;2023-04-25T11:50:03;7.35;;;2.35;;
53010;SDS011;42803;55.762;38.084;2023-04-25T11:52:35;4.50;;;2.15;;
53010;SDS011;42803;55.762;38.084;2023-04-25T11:55:08;8.23;;;2.60;;
53010;SDS011;42803;55.762;38.084;2023-04-25T11:57:38;5.90;;;2.70;;
53010;SDS011;42803;55.762;38.084;2023-04-25T12:00:09;3.00;;;2.15;;
53010;SDS011;42803;55.762;38.084;2023-04-25T12:02:45;3.65;;;2.50;;
53010;SDS011;42803;55.762;38.084;2023-04-25T12:05:17;3.65;;;2.22;;
53010;SDS011;42803;55.762;38.084;2023-04-25T12:08:11;3.30;;;2.25;;
53010;SDS011;42803;55.762;38.084;2023-04-25T12:10:42;7.10;;;2.08;;
53010;SDS011;42803;55.762;38.084;2023-04-25T12:13:19;13.23;;;3.03;;
53010;SDS011;42803;55.762;38.084;2023-04-25T12:15:50;40.25;;;4.50;;
53010;SDS011;42803;55.762;38.084;2023-04-25T12:18:20;13.48;;;3.33;;
53010;SDS011;42803;55.762;38.084;2023-04-25T12:20:51;8.75;;;2.80;;
53010;SDS011;42803;55.762;38.084;2023-04-25T12:23:25;8.48;;;3.05;;
53010;SDS011;42803;55.762;38.084;2023-04-25T12:25:55;6.63;;;3.10;;
53010;SDS011;42803;55.762;38.084;2023-04-25T12:28:25;5.57;;;2.53;;
53010;SDS011;42803;55.762;38.084;2023-04-25T12:30:56;3.83;;;2.95;;
53010;SDS011;42803;55.762;38.084;2023-04-25T12:33:27;4.10;;;2.65;;
53010;SDS011;42803;55.762;38.084;2023-04-25T12:35:59;6.43;;;3.00;;
53010;SDS011;42803;55.762;38.084;2023-04-25T12:38:35;4.80;;;3.00;;
53010;SDS011;42803;55.762;38.084;2023-04-25T12:41:06;7.95;;;2.78;;
53010;SDS011;42803;55.762;38.084;2023-04-25T12:43:36;10.15;;;2.90;;
53010;SDS011;42803;55.762;38.084;2023-04-25T12:46:05;5.68;;;2.97;;
53010;SDS011;42803;55.762;38.084;2023-04-25T12:48:34;6.38;;;3.05;;
53010;SDS011;42803;55.762;38.084;2023-04-25T12:51:07;5.47;;;2.88;;
53010;SDS011;42803;55.762;38.084;2023-04-25T12:53:37;3.83;;;3.00;;
53010;SDS011;42803;55.762;38.084;2023-04-25T12:56:08;3.92;;;3.15;;
53010;SDS011;42803;55.762;38.084;2023-04-25T12:58:37;4.25;;;2.97;;
53010;SDS011;42803;55.762;38.084;2023-04-25T13:01:06;6.05;;;3.55;;
53010;SDS011;42803;55.762;38.084;2023-04-25T13:03:35;6.65;;;2.97;;
53010;SDS011;42803;55.762;38.084;2023-04-25T13:06:06;4.47;;;3.10;;
53010;SDS011;42803;55.762;38.084;2023-04-25T13:08:36;6.65;;;3.28;;
53010;SDS011;42803;55.762;38.084;2023-04-25T13:11:05;5.07;;;2.92;;
53010;SDS011;42803;55.762;38.084;2023-04-25T13:13:34;3.53;;;2.78;;
53010;SDS011;42803;55.762;38.084;2023-04-25T13:16:04;4.07;;;2.92;;
53010;SDS011;42803;55.762;38.084;2023-04-25T13:18:34;3.50;;;2.67;;
53010;SDS011;42803;55.762;38.084;2023-04-25T13:21:04;6.53;;;2.80;;
53010;SDS011;42803;55.762;38.084;2023-04-25T13:23:35;3.03;;;2.42;;
53010;SDS011;42803;55.762;38.084;2023-04-25T13:26:04;5.25;;;2.53;;
53010;SDS011;42803;55.762;38.084;2023-04-25T13:28:33;9.25;;;2.50;;
53010;SDS011;42803;55.762;38.084;2023-04-25T13:31:02;6.60;;;2.47;;
53010;SDS011;42803;55.762;38.084;2023-04-25T13:33:31;8.93;;;2.53;;
53010;SDS011;42803;55.762;38.084;2023-04-25T13:36:01;7.63;;;2.17;;
53010;SDS011;42803;55.762;38.084;2023-04-25T13:38:30;5.22;;;2.40;;
53010;SDS011;42803;55.762;38.084;2023-04-25T13:41:01;7.13;;;2.78;;
53010;SDS011;42803;55.762;38.084;2023-04-25T13:43:30;5.03;;;2.10;;
53010;SDS011;42803;55.762;38.084;2023-04-25T13:46:01;5.43;;;2.70;;
53010;SDS011;42803;55.762;38.084;2023-04-25T13:48:31;6.45;;;2.28;;
53010;SDS011;42803;55.762;38.084;2023-04-25T13:51:01;6.25;;;2.45;;
53010;SDS011;42803;55.762;38.084;2023-04-25T13:53:30;2.20;;;2.00;;
53010;SDS011;42803;55.762;38.084;2023-04-25T13:56:00;4.50;;;1.83;;
53010;SDS011;42803;55.762;38.084;2023-04-25T13:58:29;3.42;;;2.08;;
53010;SDS011;42803;55.762;38.084;2023-04-25T14:00:59;5.70;;;2.25;;
53010;SDS011;42803;55.762;38.084;2023-04-25T14:03:29;4.78;;;1.95;;
53010;SDS011;42803;55.762;38.084;2023-04-25T14:05:58;4.97;;;1.92;;
53010;SDS011;42803;55.762;38.084;2023-04-25T14:08:28;4.03;;;2.28;;
53010;SDS011;42803;55.762;38.084;2023-04-25T14:10:57;8.07;;;2.53;;
53010;SDS011;42803;55.762;38.084;2023-04-25T14:13:27;4.00;;;2.13;;
53010;SDS011;42803;55.762;38.084;2023-04-25T14:15:57;3.45;;;2.25;;
53010;SDS011;42803;55.762;38.084;2023-04-25T14:18:26;5.90;;;2.20;;
53010;SDS011;42803;55.762;38.084;2023-04-25T14:20:55;15.55;;;3.67;;
53010;SDS011;42803;55.762;38.084;2023-04-25T14:23:24;4.93;;;2.40;;
53010;SDS011;42803;55.762;38.084;2023-04-25T14:25:53;3.33;;;2.33;;
53010;SDS011;42803;55.762;38.084;2023-04-25T14:28:22;2.45;;;1.83;;
53010;SDS011;42803;55.762;38.084;2023-04-25T14:30:53;6.20;;;2.25;;
53010;SDS011;42803;55.762;38.084;2023-04-25T14:33:22;4.50;;;2.38;;
53010;SDS011;42803;55.762;38.084;2023-04-25T14:35:52;2.40;;;2.17;;
53010;SDS011;42803;55.762;38.084;2023-04-25T14:38:21;4.78;;;2.08;;
53010;SDS011;42803;55.762;38.084;2023-04-25T14:40:52;4.75;;;2.10;;
53010;SDS011;42803;55.762;38.084;2023-04-25T14:43:22;5.65;;;1.95;;
53010;SDS011;42803;55.762;38.084;2023-04-25T14:45:54;4.63;;;1.90;;
53010;SDS011;42803;55.762;38.084;2023-04-25T14:48:24;2.40;;;1.75;;
53010;SDS011;42803;55.762;38.084;2023-04-25T14:50:54;3.65;;;2.08;;
53010;SDS011;42803;55.762;38.084;2023-04-25T14:53:23;6.30;;;2.38;;
53010;SDS011;42803;55.762;38.084;2023-04-25T14:55:53;9.40;;;2.00;;
53010;SDS011;42803;55.762;38.084;2023-04-25T14:58:22;4.20;;;2.22;;
53010;SDS011;42803;55.762;38.084;2023-04-25T15:00:53;5.85;;;2.63;;
53010;SDS011;42803;55.762;38.084;2023-04-25T15:03:23;2.85;;;2.38;;
53010;SDS011;42803;55.762;38.084;2023-04-25T15:05:53;7.85;;;3.03;;
53010;SDS011;42803;55.762;38.084;2023-04-25T15:08:23;3.90;;;1.90;;
53010;SDS011;42803;55.762;38.084;2023-04-25T15:10:53;4.53;;;2.00;;
53010;SDS011;42803;55.762;38.084;2023-04-25T15:13:23;2.65;;;1.98;;
53010;SDS011;42803;55.762;38.084;2023-04-25T15:15:53;3.97;;;2.10;;
53010;SDS011;42803;55.762;38.084;2023-04-25T15:18:23;5.18;;;2.33;;